메인 페이지
METAR-TAF:

METAR-TAF

공항 :

이즈미르, 터키

위도: 38-30N, 경도: 027-01E, 고도: 5m

현재 날씨관측

예보는 18 시간 17분 전, 09:23시(UTC)에 발표되었습니다.
남남동7kt동북동풍과 남남서풍을 오가는
온도 32°C
습도 38%
기압 1009 hPa
시정 10km 이상
1500m 미만 상공 구름 및 적란운 없음

METAR: LTBL 230923Z 15007KT 060V210 CAVOK 32/16 Q1009 BECMG 35013KT RMK RWY17 02012KT 350V050

시각: 06:40 (03:40 UTC)

예보

예보는 2 시간 0분 전, 01:40시(UTC)에 발표되었습니다.
예보 대상 시간: 24일 03시부터 24일 12시까지 (UTC)
북북서12kt
시정 10km 이상
1500m 미만 상공 구름 및 적란운 없음

TAF: LTBL 240140Z 2403/2412 34012KT CAVOK

4,000개 이상의 공항 관측 자료 및 예보 (METAR 및 TAF 보고).

지도상에서 검색 가능한 기상관측소가 노란 점과 빨간 점으로 표시되어 있습니다.

기상관측소 명을 보려면 표시 위로 마우스를 이동하세요.

날씨 관측과 예보를 보려면 클릭하세요.

지도 변경 : 확대하려면 엑스 표시가 있는 녹색 버튼, 축소하려면 빼기 표시가 있는 녹색 버튼, 다음 페이지의 지도를 보려면 녹색 화살표를 클릭하세요.


METAR-TAF: